Terminal Aerodrome Forecast
Issued by NWS Sterling, VA

Current Version | Previous Version | Graphics & Text | Print | Product List | Glossary On
Versions: 1 2 3 4 5 6 7 8 9 10 11 12 13 14 15 16 17 18 19 20 21 22 23
378
FTUS41 KLWX 261548 AAA
TAFDCA
TAF AMD
KDCA 261548Z 2616/2712 29012G16KT P6SM FEW040
     FM261800 26008KT P6SM SCT070
     FM270600 32006KT P6SM FEW250=

USA.gov is the U.S. government's official web portal to all federal, state and local government web resources and services.